Terminal Aerodrome Forecast
Issued by NWS

Home | Current Version | Previous Version | Graphics & Text | Print | Product List | Glossary On
Versions: 1 2 3 4 5 6 7 8 9 10 11 12 13 14 15 16 17
000
FTUS41 KCLE 191740
TAFFDY
TAF
KFDY 191740Z 1918/2018 20012KT P6SM VCSH BKN035
      TEMPO 1918/1920 2SM SHRA OVC020
     FM192000 24012KT P6SM -SHRA BKN040
      TEMPO 1920/1922 2SM TSRA OVC020CB
     FM200000 27008KT P6SM BKN040
     FM200900 29006KT 3SM BR BKN007
     FM201300 34005KT P6SM BKN010
     FM201600 02005KT P6SM BKN022=

USA.gov is the U.S. government's official web portal to all federal, state and local government web resources and services.